sensor_id;sensor_type;location;lat;lon;timestamp;temperature;humidity
20773;DHT22;10546;50.674;4.616;2022-07-23T00:01:00;16.60;99.90
20773;DHT22;10546;50.674;4.616;2022-07-23T00:03:25;16.60;99.90
20773;DHT22;10546;50.674;4.616;2022-07-23T00:05:51;16.50;99.90
20773;DHT22;10546;50.674;4.616;2022-07-23T00:08:17;16.50;99.90
20773;DHT22;10546;50.674;4.616;2022-07-23T00:10:43;16.50;99.90
20773;DHT22;10546;50.674;4.616;2022-07-23T00:13:08;16.60;99.90
20773;DHT22;10546;50.674;4.616;2022-07-23T00:15:34;16.50;99.90
20773;DHT22;10546;50.674;4.616;2022-07-23T00:18:00;16.40;99.90
20773;DHT22;10546;50.674;4.616;2022-07-23T00:20:25;16.40;99.90
20773;DHT22;10546;50.674;4.616;2022-07-23T00:22:53;16.30;99.90
20773;DHT22;10546;50.674;4.616;2022-07-23T00:25:20;16.40;99.90
20773;DHT22;10546;50.674;4.616;2022-07-23T00:27:46;16.40;99.90
20773;DHT22;10546;50.674;4.616;2022-07-23T00:30:12;16.40;99.90
20773;DHT22;10546;50.674;4.616;2022-07-23T00:32:55;16.40;99.90
20773;DHT22;10546;50.674;4.616;2022-07-23T00:35:27;16.30;99.90
20773;DHT22;10546;50.674;4.616;2022-07-23T00:37:54;16.20;99.90
20773;DHT22;10546;50.674;4.616;2022-07-23T00:40:20;16.20;99.90
20773;DHT22;10546;50.674;4.616;2022-07-23T00:42:46;16.10;99.90
20773;DHT22;10546;50.674;4.616;2022-07-23T00:45:12;16.00;99.90
20773;DHT22;10546;50.674;4.616;2022-07-23T00:47:38;16.00;99.90
20773;DHT22;10546;50.674;4.616;2022-07-23T00:50:05;16.00;99.90
20773;DHT22;10546;50.674;4.616;2022-07-23T00:52:32;15.90;99.90
20773;DHT22;10546;50.674;4.616;2022-07-23T00:54:58;15.80;99.90
20773;DHT22;10546;50.674;4.616;2022-07-23T00:57:23;15.90;99.90
20773;DHT22;10546;50.674;4.616;2022-07-23T00:59:49;15.80;99.90
20773;DHT22;10546;50.674;4.616;2022-07-23T01:02:15;15.80;99.90
20773;DHT22;10546;50.674;4.616;2022-07-23T01:04:40;15.80;99.90
20773;DHT22;10546;50.674;4.616;2022-07-23T01:07:07;15.90;99.90
20773;DHT22;10546;50.674;4.616;2022-07-23T01:09:32;16.00;99.90
20773;DHT22;10546;50.674;4.616;2022-07-23T01:11:58;15.90;99.90
20773;DHT22;10546;50.674;4.616;2022-07-23T01:14:24;15.90;99.90
20773;DHT22;10546;50.674;4.616;2022-07-23T01:16:50;15.80;99.90
20773;DHT22;10546;50.674;4.616;2022-07-23T01:19:16;15.80;99.90
20773;DHT22;10546;50.674;4.616;2022-07-23T01:21:48;15.90;99.90
20773;DHT22;10546;50.674;4.616;2022-07-23T01:24:13;15.90;99.90
20773;DHT22;10546;50.674;4.616;2022-07-23T01:26:42;15.90;99.90
20773;DHT22;10546;50.674;4.616;2022-07-23T01:29:08;15.80;99.90
20773;DHT22;10546;50.674;4.616;2022-07-23T01:31:34;15.80;99.90
20773;DHT22;10546;50.674;4.616;2022-07-23T01:34:00;15.70;99.90
20773;DHT22;10546;50.674;4.616;2022-07-23T01:36:25;15.60;99.90
20773;DHT22;10546;50.674;4.616;2022-07-23T01:38:51;15.60;99.90
20773;DHT22;10546;50.674;4.616;2022-07-23T01:41:17;15.60;99.90
20773;DHT22;10546;50.674;4.616;2022-07-23T01:43:43;15.60;99.90
20773;DHT22;10546;50.674;4.616;2022-07-23T01:46:09;15.70;99.90
20773;DHT22;10546;50.674;4.616;2022-07-23T01:48:35;15.70;99.90
20773;DHT22;10546;50.674;4.616;2022-07-23T01:51:01;15.70;99.90
20773;DHT22;10546;50.674;4.616;2022-07-23T01:53:27;15.80;99.90
20773;DHT22;10546;50.674;4.616;2022-07-23T01:55:53;15.70;99.90
20773;DHT22;10546;50.674;4.616;2022-07-23T01:58:18;15.70;99.90
20773;DHT22;10546;50.674;4.616;2022-07-23T02:00:44;15.80;99.90
20773;DHT22;10546;50.674;4.616;2022-07-23T02:03:09;15.80;99.90
20773;DHT22;10546;50.674;4.616;2022-07-23T02:05:35;15.90;99.90
20773;DHT22;10546;50.674;4.616;2022-07-23T02:08:01;15.70;99.90
20773;DHT22;10546;50.674;4.616;2022-07-23T02:10:27;15.70;99.90
20773;DHT22;10546;50.674;4.616;2022-07-23T02:12:53;15.70;99.90
20773;DHT22;10546;50.674;4.616;2022-07-23T02:15:19;15.80;99.90
20773;DHT22;10546;50.674;4.616;2022-07-23T02:17:45;15.80;99.90
20773;DHT22;10546;50.674;4.616;2022-07-23T02:20:11;15.80;99.90
20773;DHT22;10546;50.674;4.616;2022-07-23T02:22:38;15.90;99.90
20773;DHT22;10546;50.674;4.616;2022-07-23T02:25:05;15.90;99.90
20773;DHT22;10546;50.674;4.616;2022-07-23T02:27:31;15.90;99.90
20773;DHT22;10546;50.674;4.616;2022-07-23T02:29:56;16.10;99.90
20773;DHT22;10546;50.674;4.616;2022-07-23T02:32:23;16.10;99.90
20773;DHT22;10546;50.674;4.616;2022-07-23T02:34:49;16.20;99.90
20773;DHT22;10546;50.674;4.616;2022-07-23T02:37:15;16.10;99.90
20773;DHT22;10546;50.674;4.616;2022-07-23T02:39:41;16.10;99.90
20773;DHT22;10546;50.674;4.616;2022-07-23T02:42:07;16.20;99.90
20773;DHT22;10546;50.674;4.616;2022-07-23T02:44:33;16.10;99.90
20773;DHT22;10546;50.674;4.616;2022-07-23T02:46:58;16.00;99.90
20773;DHT22;10546;50.674;4.616;2022-07-23T02:49:24;15.80;99.90
20773;DHT22;10546;50.674;4.616;2022-07-23T02:51:49;15.80;99.90
20773;DHT22;10546;50.674;4.616;2022-07-23T02:54:15;15.70;99.90
20773;DHT22;10546;50.674;4.616;2022-07-23T02:56:41;15.70;99.90
20773;DHT22;10546;50.674;4.616;2022-07-23T02:59:07;15.80;99.90
20773;DHT22;10546;50.674;4.616;2022-07-23T03:01:32;15.70;99.90
20773;DHT22;10546;50.674;4.616;2022-07-23T03:03:58;15.90;99.90
20773;DHT22;10546;50.674;4.616;2022-07-23T03:06:24;15.90;99.90
20773;DHT22;10546;50.674;4.616;2022-07-23T03:08:50;16.00;99.90
20773;DHT22;10546;50.674;4.616;2022-07-23T03:11:15;16.00;99.90
20773;DHT22;10546;50.674;4.616;2022-07-23T03:13:41;15.90;99.90
20773;DHT22;10546;50.674;4.616;2022-07-23T03:16:07;15.90;99.90
20773;DHT22;10546;50.674;4.616;2022-07-23T03:18:33;15.90;99.90
20773;DHT22;10546;50.674;4.616;2022-07-23T03:20:59;15.90;99.90
20773;DHT22;10546;50.674;4.616;2022-07-23T03:23:25;15.90;99.90
20773;DHT22;10546;50.674;4.616;2022-07-23T03:25:51;15.90;99.90
20773;DHT22;10546;50.674;4.616;2022-07-23T03:28:17;15.90;99.90
20773;DHT22;10546;50.674;4.616;2022-07-23T03:30:44;15.90;99.90
20773;DHT22;10546;50.674;4.616;2022-07-23T03:33:14;15.60;99.90
20773;DHT22;10546;50.674;4.616;2022-07-23T03:35:42;15.60;99.90
20773;DHT22;10546;50.674;4.616;2022-07-23T03:38:07;15.60;99.90
20773;DHT22;10546;50.674;4.616;2022-07-23T03:40:33;15.70;99.90
20773;DHT22;10546;50.674;4.616;2022-07-23T03:42:58;15.70;99.90
20773;DHT22;10546;50.674;4.616;2022-07-23T03:45:24;15.70;99.90
20773;DHT22;10546;50.674;4.616;2022-07-23T03:47:50;15.60;99.90
20773;DHT22;10546;50.674;4.616;2022-07-23T03:50:15;15.60;99.90
20773;DHT22;10546;50.674;4.616;2022-07-23T03:52:41;15.60;99.90
20773;DHT22;10546;50.674;4.616;2022-07-23T03:55:07;15.50;99.90
20773;DHT22;10546;50.674;4.616;2022-07-23T03:57:33;15.50;99.90
20773;DHT22;10546;50.674;4.616;2022-07-23T03:59:58;15.50;99.90
20773;DHT22;10546;50.674;4.616;2022-07-23T04:02:24;15.50;99.90
20773;DHT22;10546;50.674;4.616;2022-07-23T04:04:50;15.70;99.90
20773;DHT22;10546;50.674;4.616;2022-07-23T04:07:16;15.70;99.90
20773;DHT22;10546;50.674;4.616;2022-07-23T04:09:43;15.80;99.90
20773;DHT22;10546;50.674;4.616;2022-07-23T04:12:09;15.80;99.90
20773;DHT22;10546;50.674;4.616;2022-07-23T04:14:34;15.90;99.90
20773;DHT22;10546;50.674;4.616;2022-07-23T04:17:00;15.90;99.90
20773;DHT22;10546;50.674;4.616;2022-07-23T04:19:26;15.80;99.90
20773;DHT22;10546;50.674;4.616;2022-07-23T04:21:51;15.90;99.90
20773;DHT22;10546;50.674;4.616;2022-07-23T04:24:18;16.00;99.90
20773;DHT22;10546;50.674;4.616;2022-07-23T04:26:44;16.00;99.90
20773;DHT22;10546;50.674;4.616;2022-07-23T04:29:09;16.10;99.90
20773;DHT22;10546;50.674;4.616;2022-07-23T04:31:35;16.20;99.90
20773;DHT22;10546;50.674;4.616;2022-07-23T04:34:01;16.30;99.90
20773;DHT22;10546;50.674;4.616;2022-07-23T04:36:26;16.50;99.90
20773;DHT22;10546;50.674;4.616;2022-07-23T04:38:52;16.40;99.90
20773;DHT22;10546;50.674;4.616;2022-07-23T04:41:18;16.40;99.90
20773;DHT22;10546;50.674;4.616;2022-07-23T04:43:43;16.60;99.90
20773;DHT22;10546;50.674;4.616;2022-07-23T04:46:09;16.60;99.90
20773;DHT22;10546;50.674;4.616;2022-07-23T04:48:36;16.60;99.90
20773;DHT22;10546;50.674;4.616;2022-07-23T04:51:02;16.50;99.90
20773;DHT22;10546;50.674;4.616;2022-07-23T04:53:27;16.40;99.90
20773;DHT22;10546;50.674;4.616;2022-07-23T04:55:53;16.50;99.90
20773;DHT22;10546;50.674;4.616;2022-07-23T04:58:19;16.80;99.90
20773;DHT22;10546;50.674;4.616;2022-07-23T05:00:44;17.20;99.90
20773;DHT22;10546;50.674;4.616;2022-07-23T05:03:10;17.60;99.90
20773;DHT22;10546;50.674;4.616;2022-07-23T05:05:35;17.60;99.90
20773;DHT22;10546;50.674;4.616;2022-07-23T05:08:01;17.60;99.90
20773;DHT22;10546;50.674;4.616;2022-07-23T05:10:27;17.60;99.90
20773;DHT22;10546;50.674;4.616;2022-07-23T05:12:53;17.70;99.90
20773;DHT22;10546;50.674;4.616;2022-07-23T05:15:18;17.70;99.90
20773;DHT22;10546;50.674;4.616;2022-07-23T05:17:44;17.60;99.90
20773;DHT22;10546;50.674;4.616;2022-07-23T05:20:10;17.60;99.90
20773;DHT22;10546;50.674;4.616;2022-07-23T05:22:35;17.80;99.90
20773;DHT22;10546;50.674;4.616;2022-07-23T05:25:01;18.30;99.90
20773;DHT22;10546;50.674;4.616;2022-07-23T05:27:27;18.40;99.90
20773;DHT22;10546;50.674;4.616;2022-07-23T05:29:52;18.60;99.90
20773;DHT22;10546;50.674;4.616;2022-07-23T05:32:18;18.70;99.90
20773;DHT22;10546;50.674;4.616;2022-07-23T05:34:44;19.20;99.90
20773;DHT22;10546;50.674;4.616;2022-07-23T05:37:09;19.80;99.90
20773;DHT22;10546;50.674;4.616;2022-07-23T05:39:35;20.10;99.90
20773;DHT22;10546;50.674;4.616;2022-07-23T05:42:01;20.60;99.90
20773;DHT22;10546;50.674;4.616;2022-07-23T05:44:27;21.10;99.90
20773;DHT22;10546;50.674;4.616;2022-07-23T05:46:52;21.30;99.90
20773;DHT22;10546;50.674;4.616;2022-07-23T05:49:18;21.50;99.90
20773;DHT22;10546;50.674;4.616;2022-07-23T05:51:44;21.60;99.90
20773;DHT22;10546;50.674;4.616;2022-07-23T05:54:10;21.80;99.90
20773;DHT22;10546;50.674;4.616;2022-07-23T05:56:36;22.00;99.90
20773;DHT22;10546;50.674;4.616;2022-07-23T05:59:02;22.40;99.90
20773;DHT22;10546;50.674;4.616;2022-07-23T06:01:27;22.80;99.90
20773;DHT22;10546;50.674;4.616;2022-07-23T06:03:53;22.70;99.90
20773;DHT22;10546;50.674;4.616;2022-07-23T06:06:18;22.90;99.90
20773;DHT22;10546;50.674;4.616;2022-07-23T06:08:44;22.30;99.90
20773;DHT22;10546;50.674;4.616;2022-07-23T06:11:10;22.60;99.90
20773;DHT22;10546;50.674;4.616;2022-07-23T06:13:36;22.50;99.90
20773;DHT22;10546;50.674;4.616;2022-07-23T06:16:02;22.60;99.90
20773;DHT22;10546;50.674;4.616;2022-07-23T06:18:27;22.30;99.90
20773;DHT22;10546;50.674;4.616;2022-07-23T06:20:53;22.80;99.90
20773;DHT22;10546;50.674;4.616;2022-07-23T06:23:19;23.50;99.90
20773;DHT22;10546;50.674;4.616;2022-07-23T06:25:45;24.20;99.90
20773;DHT22;10546;50.674;4.616;2022-07-23T06:28:11;24.70;99.90
20773;DHT22;10546;50.674;4.616;2022-07-23T06:30:36;25.00;99.90
20773;DHT22;10546;50.674;4.616;2022-07-23T06:33:03;24.70;99.90
20773;DHT22;10546;50.674;4.616;2022-07-23T06:35:28;24.70;99.90
20773;DHT22;10546;50.674;4.616;2022-07-23T06:37:54;24.90;99.90
20773;DHT22;10546;50.674;4.616;2022-07-23T06:40:19;25.30;99.90
20773;DHT22;10546;50.674;4.616;2022-07-23T06:42:45;26.00;99.90
20773;DHT22;10546;50.674;4.616;2022-07-23T06:45:11;26.40;99.90
20773;DHT22;10546;50.674;4.616;2022-07-23T06:47:37;26.60;99.90
20773;DHT22;10546;50.674;4.616;2022-07-23T06:50:03;26.70;99.90
20773;DHT22;10546;50.674;4.616;2022-07-23T06:52:28;27.20;99.90
20773;DHT22;10546;50.674;4.616;2022-07-23T06:54:54;27.70;99.90
20773;DHT22;10546;50.674;4.616;2022-07-23T06:57:20;27.60;99.90
20773;DHT22;10546;50.674;4.616;2022-07-23T06:59:45;28.10;99.90
20773;DHT22;10546;50.674;4.616;2022-07-23T07:02:11;28.70;99.90
20773;DHT22;10546;50.674;4.616;2022-07-23T07:04:37;28.60;99.90
20773;DHT22;10546;50.674;4.616;2022-07-23T07:07:02;29.00;99.90
20773;DHT22;10546;50.674;4.616;2022-07-23T07:09:28;29.00;99.90
20773;DHT22;10546;50.674;4.616;2022-07-23T07:11:54;28.20;99.90
20773;DHT22;10546;50.674;4.616;2022-07-23T07:14:20;27.90;99.90
20773;DHT22;10546;50.674;4.616;2022-07-23T07:16:45;28.40;99.90
20773;DHT22;10546;50.674;4.616;2022-07-23T07:19:11;29.00;99.90
20773;DHT22;10546;50.674;4.616;2022-07-23T07:21:36;29.00;99.90
20773;DHT22;10546;50.674;4.616;2022-07-23T07:24:02;29.40;99.90
20773;DHT22;10546;50.674;4.616;2022-07-23T07:26:28;29.70;99.90
20773;DHT22;10546;50.674;4.616;2022-07-23T07:28:53;29.80;99.90
20773;DHT22;10546;50.674;4.616;2022-07-23T07:31:19;30.20;99.90
20773;DHT22;10546;50.674;4.616;2022-07-23T07:33:45;30.00;99.90
20773;DHT22;10546;50.674;4.616;2022-07-23T07:36:10;29.90;99.90
20773;DHT22;10546;50.674;4.616;2022-07-23T07:38:36;30.10;99.90
20773;DHT22;10546;50.674;4.616;2022-07-23T07:41:01;30.40;99.90
20773;DHT22;10546;50.674;4.616;2022-07-23T07:43:27;30.10;99.90
20773;DHT22;10546;50.674;4.616;2022-07-23T07:45:53;29.60;99.90
20773;DHT22;10546;50.674;4.616;2022-07-23T07:48:18;30.00;99.90
20773;DHT22;10546;50.674;4.616;2022-07-23T07:50:44;30.30;99.90
20773;DHT22;10546;50.674;4.616;2022-07-23T07:53:10;30.90;99.90
20773;DHT22;10546;50.674;4.616;2022-07-23T07:55:35;31.20;99.90
20773;DHT22;10546;50.674;4.616;2022-07-23T07:58:01;31.30;99.90
20773;DHT22;10546;50.674;4.616;2022-07-23T08:00:27;31.20;99.90
20773;DHT22;10546;50.674;4.616;2022-07-23T08:02:54;29.70;99.90
20773;DHT22;10546;50.674;4.616;2022-07-23T08:05:25;29.80;99.90
20773;DHT22;10546;50.674;4.616;2022-07-23T08:07:51;30.00;99.90
20773;DHT22;10546;50.674;4.616;2022-07-23T08:10:17;30.20;99.90
20773;DHT22;10546;50.674;4.616;2022-07-23T08:12:50;29.80;99.90
20773;DHT22;10546;50.674;4.616;2022-07-23T08:15:18;29.80;99.90
20773;DHT22;10546;50.674;4.616;2022-07-23T08:17:45;31.20;99.90
20773;DHT22;10546;50.674;4.616;2022-07-23T08:20:13;31.70;99.90
20773;DHT22;10546;50.674;4.616;2022-07-23T08:22:59;32.20;99.90
20773;DHT22;10546;50.674;4.616;2022-07-23T08:25:30;32.70;99.90
20773;DHT22;10546;50.674;4.616;2022-07-23T08:28:00;31.60;99.80
20773;DHT22;10546;50.674;4.616;2022-07-23T08:30:27;31.80;99.90
20773;DHT22;10546;50.674;4.616;2022-07-23T08:33:01;31.80;99.90
20773;DHT22;10546;50.674;4.616;2022-07-23T08:35:31;32.00;99.80
20773;DHT22;10546;50.674;4.616;2022-07-23T08:37:59;32.10;99.50
20773;DHT22;10546;50.674;4.616;2022-07-23T08:40:30;32.20;98.90
20773;DHT22;10546;50.674;4.616;2022-07-23T08:42:57;33.00;98.80
20773;DHT22;10546;50.674;4.616;2022-07-23T08:45:24;33.70;97.30
20773;DHT22;10546;50.674;4.616;2022-07-23T08:47:55;32.90;95.60
20773;DHT22;10546;50.674;4.616;2022-07-23T08:50:22;33.10;97.50
20773;DHT22;10546;50.674;4.616;2022-07-23T08:52:49;32.50;97.10
20773;DHT22;10546;50.674;4.616;2022-07-23T08:55:20;32.60;96.80
20773;DHT22;10546;50.674;4.616;2022-07-23T08:57:50;33.10;96.30
20773;DHT22;10546;50.674;4.616;2022-07-23T09:00:16;33.10;96.40
20773;DHT22;10546;50.674;4.616;2022-07-23T09:02:44;33.70;96.40
20773;DHT22;10546;50.674;4.616;2022-07-23T09:05:11;32.90;95.90
20773;DHT22;10546;50.674;4.616;2022-07-23T09:08:19;32.20;95.90
20773;DHT22;10546;50.674;4.616;2022-07-23T09:13:39;32.70;96.30
20773;DHT22;10546;50.674;4.616;2022-07-23T09:16:17;31.80;96.50
20773;DHT22;10546;50.674;4.616;2022-07-23T09:18:55;32.60;96.30
20773;DHT22;10546;50.674;4.616;2022-07-23T09:24:21;34.20;94.40
20773;DHT22;10546;50.674;4.616;2022-07-23T09:26:45;33.80;92.70
20773;DHT22;10546;50.674;4.616;2022-07-23T09:29:23;33.40;92.70
20773;DHT22;10546;50.674;4.616;2022-07-23T09:32:01;34.20;92.20
20773;DHT22;10546;50.674;4.616;2022-07-23T09:34:35;35.10;91.40
20773;DHT22;10546;50.674;4.616;2022-07-23T09:37:15;34.90;90.40
20773;DHT22;10546;50.674;4.616;2022-07-23T09:39:42;35.30;90.20
20773;DHT22;10546;50.674;4.616;2022-07-23T09:42:16;35.10;90.20
20773;DHT22;10546;50.674;4.616;2022-07-23T09:44:46;35.20;90.00
20773;DHT22;10546;50.674;4.616;2022-07-23T09:47:13;35.00;90.30
20773;DHT22;10546;50.674;4.616;2022-07-23T09:49:38;35.20;90.40
20773;DHT22;10546;50.674;4.616;2022-07-23T09:52:04;34.60;89.70
20773;DHT22;10546;50.674;4.616;2022-07-23T09:54:38;35.00;89.80
20773;DHT22;10546;50.674;4.616;2022-07-23T09:57:13;34.20;89.70
20773;DHT22;10546;50.674;4.616;2022-07-23T09:59:42;33.20;90.40
20773;DHT22;10546;50.674;4.616;2022-07-23T10:02:09;33.60;89.50
20773;DHT22;10546;50.674;4.616;2022-07-23T10:04:36;34.50;88.00
20773;DHT22;10546;50.674;4.616;2022-07-23T10:07:04;34.50;88.90
20773;DHT22;10546;50.674;4.616;2022-07-23T10:09:35;34.90;87.80
20773;DHT22;10546;50.674;4.616;2022-07-23T10:12:12;35.00;87.80
20773;DHT22;10546;50.674;4.616;2022-07-23T10:14:57;35.10;86.60
20773;DHT22;10546;50.674;4.616;2022-07-23T10:17:23;35.50;86.60
20773;DHT22;10546;50.674;4.616;2022-07-23T10:19:49;35.80;85.10
20773;DHT22;10546;50.674;4.616;2022-07-23T10:22:29;36.50;82.40
20773;DHT22;10546;50.674;4.616;2022-07-23T10:33:27;34.90;81.70
20773;DHT22;10546;50.674;4.616;2022-07-23T10:36:03;34.90;81.30
20773;DHT22;10546;50.674;4.616;2022-07-23T10:41:13;34.00;82.80
20773;DHT22;10546;50.674;4.616;2022-07-23T10:43:39;34.40;83.30
20773;DHT22;10546;50.674;4.616;2022-07-23T10:46:23;34.20;82.50
20773;DHT22;10546;50.674;4.616;2022-07-23T10:49:32;34.40;82.00
20773;DHT22;10546;50.674;4.616;2022-07-23T10:54:42;34.70;82.40
20773;DHT22;10546;50.674;4.616;2022-07-23T10:57:09;35.00;82.60
20773;DHT22;10546;50.674;4.616;2022-07-23T11:02:49;34.30;82.70
20773;DHT22;10546;50.674;4.616;2022-07-23T11:05:17;34.00;82.80
20773;DHT22;10546;50.674;4.616;2022-07-23T11:10:41;33.10;83.80
20773;DHT22;10546;50.674;4.616;2022-07-23T11:13:46;32.80;84.20
20773;DHT22;10546;50.674;4.616;2022-07-23T11:16:20;32.80;84.90
20773;DHT22;10546;50.674;4.616;2022-07-23T11:18:54;32.70;84.00
20773;DHT22;10546;50.674;4.616;2022-07-23T11:24:04;31.80;86.10
20773;DHT22;10546;50.674;4.616;2022-07-23T11:26:53;32.40;86.10
20773;DHT22;10546;50.674;4.616;2022-07-23T11:34:32;32.60;85.10
20773;DHT22;10546;50.674;4.616;2022-07-23T11:36:59;31.90;84.90
20773;DHT22;10546;50.674;4.616;2022-07-23T11:39:26;31.70;86.60
20773;DHT22;10546;50.674;4.616;2022-07-23T11:41:53;32.00;89.20
20773;DHT22;10546;50.674;4.616;2022-07-23T11:44:34;32.20;87.50
20773;DHT22;10546;50.674;4.616;2022-07-23T11:47:06;31.70;86.70
20773;DHT22;10546;50.674;4.616;2022-07-23T11:49:33;31.60;85.90
20773;DHT22;10546;50.674;4.616;2022-07-23T11:52:14;31.00;88.20
20773;DHT22;10546;50.674;4.616;2022-07-23T11:55:07;31.00;87.60
20773;DHT22;10546;50.674;4.616;2022-07-23T11:57:38;30.80;88.40
20773;DHT22;10546;50.674;4.616;2022-07-23T12:00:13;30.50;88.20
20773;DHT22;10546;50.674;4.616;2022-07-23T12:02:41;31.20;88.30
20773;DHT22;10546;50.674;4.616;2022-07-23T12:05:08;31.80;87.50
20773;DHT22;10546;50.674;4.616;2022-07-23T12:07:38;31.70;87.00
20773;DHT22;10546;50.674;4.616;2022-07-23T12:10:26;31.70;85.70
20773;DHT22;10546;50.674;4.616;2022-07-23T12:13:19;31.70;85.20
20773;DHT22;10546;50.674;4.616;2022-07-23T12:15:51;31.10;86.10
20773;DHT22;10546;50.674;4.616;2022-07-23T12:18:22;30.80;87.50
20773;DHT22;10546;50.674;4.616;2022-07-23T12:20:50;30.80;87.30
20773;DHT22;10546;50.674;4.616;2022-07-23T12:23:18;30.90;87.80
20773;DHT22;10546;50.674;4.616;2022-07-23T12:25:45;31.00;86.10
20773;DHT22;10546;50.674;4.616;2022-07-23T12:28:18;31.00;86.70
20773;DHT22;10546;50.674;4.616;2022-07-23T12:30:47;30.90;87.70
20773;DHT22;10546;50.674;4.616;2022-07-23T12:35:50;30.70;86.10
20773;DHT22;10546;50.674;4.616;2022-07-23T12:38:22;30.90;87.90
20773;DHT22;10546;50.674;4.616;2022-07-23T12:40:52;31.00;87.30
20773;DHT22;10546;50.674;4.616;2022-07-23T12:43:24;30.40;89.20
20773;DHT22;10546;50.674;4.616;2022-07-23T12:48:30;30.10;90.40
20773;DHT22;10546;50.674;4.616;2022-07-23T12:51:08;30.20;89.00
20773;DHT22;10546;50.674;4.616;2022-07-23T12:53:38;30.30;90.10
20773;DHT22;10546;50.674;4.616;2022-07-23T12:56:07;30.10;89.90
20773;DHT22;10546;50.674;4.616;2022-07-23T12:58:51;30.20;89.00
20773;DHT22;10546;50.674;4.616;2022-07-23T13:09:06;29.50;90.50
20773;DHT22;10546;50.674;4.616;2022-07-23T13:11:32;29.60;90.10
20773;DHT22;10546;50.674;4.616;2022-07-23T13:13:59;29.80;89.90
20773;DHT22;10546;50.674;4.616;2022-07-23T13:16:26;29.70;89.10
20773;DHT22;10546;50.674;4.616;2022-07-23T13:18:52;29.50;89.90
20773;DHT22;10546;50.674;4.616;2022-07-23T13:21:18;29.50;90.10
20773;DHT22;10546;50.674;4.616;2022-07-23T13:23:43;29.40;90.00
20773;DHT22;10546;50.674;4.616;2022-07-23T13:26:09;29.70;90.50
20773;DHT22;10546;50.674;4.616;2022-07-23T13:28:35;29.60;90.10
20773;DHT22;10546;50.674;4.616;2022-07-23T13:31:00;29.60;91.00
20773;DHT22;10546;50.674;4.616;2022-07-23T13:33:26;29.70;90.50
20773;DHT22;10546;50.674;4.616;2022-07-23T13:35:52;29.80;89.00
20773;DHT22;10546;50.674;4.616;2022-07-23T13:38:19;29.90;90.00
20773;DHT22;10546;50.674;4.616;2022-07-23T13:40:47;29.90;89.90
20773;DHT22;10546;50.674;4.616;2022-07-23T13:43:16;30.20;90.20
20773;DHT22;10546;50.674;4.616;2022-07-23T13:45:43;30.40;88.60
20773;DHT22;10546;50.674;4.616;2022-07-23T13:48:10;29.90;88.80
20773;DHT22;10546;50.674;4.616;2022-07-23T13:50:36;29.50;88.90
20773;DHT22;10546;50.674;4.616;2022-07-23T13:53:08;29.30;90.20
20773;DHT22;10546;50.674;4.616;2022-07-23T13:55:35;29.40;90.00
20773;DHT22;10546;50.674;4.616;2022-07-23T13:58:02;29.80;89.90
20773;DHT22;10546;50.674;4.616;2022-07-23T14:00:28;29.90;90.30
20773;DHT22;10546;50.674;4.616;2022-07-23T14:02:56;30.10;90.30
20773;DHT22;10546;50.674;4.616;2022-07-23T14:05:22;30.50;89.50
20773;DHT22;10546;50.674;4.616;2022-07-23T14:07:47;30.40;87.70
20773;DHT22;10546;50.674;4.616;2022-07-23T14:10:16;30.50;88.80
20773;DHT22;10546;50.674;4.616;2022-07-23T14:12:42;30.60;87.90
20773;DHT22;10546;50.674;4.616;2022-07-23T14:15:08;30.50;89.50
20773;DHT22;10546;50.674;4.616;2022-07-23T14:17:36;30.30;89.50
20773;DHT22;10546;50.674;4.616;2022-07-23T14:20:03;30.40;88.90
20773;DHT22;10546;50.674;4.616;2022-07-23T14:22:29;30.70;88.50
20773;DHT22;10546;50.674;4.616;2022-07-23T14:24:54;30.50;88.40
20773;DHT22;10546;50.674;4.616;2022-07-23T14:27:22;30.60;89.70
20773;DHT22;10546;50.674;4.616;2022-07-23T14:29:48;30.30;90.30
20773;DHT22;10546;50.674;4.616;2022-07-23T14:32:14;30.40;90.30
20773;DHT22;10546;50.674;4.616;2022-07-23T14:34:40;30.50;89.50
20773;DHT22;10546;50.674;4.616;2022-07-23T14:37:05;30.50;88.60
20773;DHT22;10546;50.674;4.616;2022-07-23T14:39:31;30.40;88.30
20773;DHT22;10546;50.674;4.616;2022-07-23T14:41:56;30.60;88.70
20773;DHT22;10546;50.674;4.616;2022-07-23T14:44:22;31.00;89.30
20773;DHT22;10546;50.674;4.616;2022-07-23T14:46:48;30.80;88.80
20773;DHT22;10546;50.674;4.616;2022-07-23T14:49:14;30.90;88.70
20773;DHT22;10546;50.674;4.616;2022-07-23T14:51:40;31.00;89.10
20773;DHT22;10546;50.674;4.616;2022-07-23T14:54:07;30.70;87.10
20773;DHT22;10546;50.674;4.616;2022-07-23T14:56:33;30.50;87.30
20773;DHT22;10546;50.674;4.616;2022-07-23T14:59:00;30.30;90.00
20773;DHT22;10546;50.674;4.616;2022-07-23T15:01:26;30.30;89.40
20773;DHT22;10546;50.674;4.616;2022-07-23T15:03:51;30.30;88.20
20773;DHT22;10546;50.674;4.616;2022-07-23T15:06:17;30.50;88.30
20773;DHT22;10546;50.674;4.616;2022-07-23T15:08:43;30.40;89.30
20773;DHT22;10546;50.674;4.616;2022-07-23T15:11:09;30.60;89.70
20773;DHT22;10546;50.674;4.616;2022-07-23T15:13:36;30.40;87.70
20773;DHT22;10546;50.674;4.616;2022-07-23T15:16:03;30.40;88.70
20773;DHT22;10546;50.674;4.616;2022-07-23T15:18:29;29.90;89.10
20773;DHT22;10546;50.674;4.616;2022-07-23T15:20:55;29.30;90.40
20773;DHT22;10546;50.674;4.616;2022-07-23T15:23:21;29.30;90.80
20773;DHT22;10546;50.674;4.616;2022-07-23T15:25:46;29.40;91.30
20773;DHT22;10546;50.674;4.616;2022-07-23T15:28:12;29.10;91.30
20773;DHT22;10546;50.674;4.616;2022-07-23T15:30:37;29.30;91.30
20773;DHT22;10546;50.674;4.616;2022-07-23T15:33:03;29.40;91.10
20773;DHT22;10546;50.674;4.616;2022-07-23T15:35:31;29.40;90.90
20773;DHT22;10546;50.674;4.616;2022-07-23T15:37:56;29.50;90.50
20773;DHT22;10546;50.674;4.616;2022-07-23T15:40:22;29.60;90.40
20773;DHT22;10546;50.674;4.616;2022-07-23T15:42:49;29.50;91.30
20773;DHT22;10546;50.674;4.616;2022-07-23T15:45:15;29.60;90.20
20773;DHT22;10546;50.674;4.616;2022-07-23T15:47:41;29.80;90.50
20773;DHT22;10546;50.674;4.616;2022-07-23T15:50:08;29.90;90.30
20773;DHT22;10546;50.674;4.616;2022-07-23T15:52:35;29.70;90.00
20773;DHT22;10546;50.674;4.616;2022-07-23T15:55:00;29.50;90.50
20773;DHT22;10546;50.674;4.616;2022-07-23T15:57:26;29.20;90.70
20773;DHT22;10546;50.674;4.616;2022-07-23T15:59:52;29.10;91.00
20773;DHT22;10546;50.674;4.616;2022-07-23T16:02:17;29.20;90.50
20773;DHT22;10546;50.674;4.616;2022-07-23T16:04:43;29.00;90.50
20773;DHT22;10546;50.674;4.616;2022-07-23T16:07:09;29.00;90.70
20773;DHT22;10546;50.674;4.616;2022-07-23T16:09:34;29.10;90.70
20773;DHT22;10546;50.674;4.616;2022-07-23T16:12:00;28.70;90.70
20773;DHT22;10546;50.674;4.616;2022-07-23T16:14:26;28.50;91.30
20773;DHT22;10546;50.674;4.616;2022-07-23T16:16:51;28.60;91.20
20773;DHT22;10546;50.674;4.616;2022-07-23T16:19:17;28.40;91.10